createdAt,value
2023-05-21T00:01:17.385Z,99319.38
2023-05-21T00:03:46.278Z,99311.44
2023-05-21T00:06:13.929Z,99314.09
2023-05-21T00:08:41.196Z,99316.72
2023-05-21T00:11:08.622Z,99312.44
2023-05-21T00:13:35.438Z,99313.50
2023-05-21T00:16:02.487Z,99303.13
2023-05-21T00:18:32.489Z,99302.34
2023-05-21T00:21:00.062Z,99301.53
2023-05-21T00:23:26.976Z,99305.97
2023-05-21T00:25:54.012Z,99299.13
2023-05-21T00:28:21.152Z,99298.38
2023-05-21T00:30:48.207Z,99306.47
2023-05-21T00:33:15.158Z,99309.19
2023-05-21T00:35:42.301Z,99307.56
2023-05-21T00:38:09.149Z,99312.94
2023-05-21T00:40:36.470Z,99313.06
2023-05-21T00:43:03.482Z,99318.47
2023-05-21T00:45:30.608Z,99316.88
2023-05-21T00:47:57.609Z,99312.66
2023-05-21T00:50:26.164Z,99310.13
2023-05-21T00:52:53.460Z,99317.25
2023-05-21T00:55:20.579Z,99314.88
2023-05-21T00:57:47.572Z,99308.94
2023-05-21T01:00:14.951Z,99304.78
2023-05-21T01:02:42.247Z,99308.59
2023-05-21T01:05:10.010Z,99302.69
2023-05-21T01:07:39.098Z,99307.25
2023-05-21T01:10:07.779Z,99302.94
2023-05-21T01:12:35.913Z,99299.56
2023-05-21T01:15:04.156Z,99301.34
2023-05-21T01:17:32.143Z,99301.41
2023-05-21T01:19:59.619Z,99299.75
2023-05-21T01:22:28.718Z,99289.25
2023-05-21T01:24:55.860Z,99288.47
2023-05-21T01:27:22.983Z,99279.81
2023-05-21T01:29:50.070Z,99279.13
2023-05-21T01:32:23.158Z,99281.03
2023-05-21T01:34:59.397Z,99289.03
2023-05-21T01:37:38.236Z,99290.06
2023-05-21T01:40:13.160Z,99287.50
2023-05-21T01:42:43.293Z,99289.28
2023-05-21T01:45:10.941Z,99285.91
2023-05-21T01:47:38.317Z,99282.47
2023-05-21T01:50:05.843Z,99280.84
2023-05-21T01:52:32.689Z,99276.56
2023-05-21T01:55:00.483Z,99279.38
2023-05-21T01:57:27.268Z,99276.91
2023-05-21T01:59:54.868Z,99275.34
2023-05-21T02:02:21.927Z,99279.84
2023-05-21T02:04:50.253Z,99272.97
2023-05-21T02:07:18.488Z,99277.47
2023-05-21T02:09:45.629Z,99272.25
2023-05-21T02:12:12.434Z,99275.00
2023-05-21T02:14:39.567Z,99276.81
2023-05-21T02:17:08.177Z,99275.16
2023-05-21T02:19:35.447Z,99263.97
2023-05-21T02:22:02.254Z,99268.47
2023-05-21T02:24:29.382Z,99267.66
2023-05-21T02:26:56.359Z,99266.03
2023-05-21T02:29:23.442Z,99270.50
2023-05-21T02:31:51.444Z,99264.38
2023-05-21T02:34:20.784Z,99260.94
2023-05-21T02:36:52.467Z,99261.91
2023-05-21T02:39:19.761Z,99268.94
2023-05-21T02:41:47.782Z,99259.41
2023-05-21T02:44:14.881Z,99264.59
2023-05-21T02:46:41.635Z,99261.09
2023-05-21T02:49:08.774Z,99269.84
2023-05-21T02:51:35.540Z,99258.59
2023-05-21T02:54:02.580Z,99262.13
2023-05-21T02:56:29.329Z,99261.25
2023-05-21T02:58:56.383Z,99264.75
2023-05-21T03:01:23.209Z,99265.72
2023-05-21T03:03:50.383Z,99261.50
2023-05-21T03:06:17.122Z,99258.06
2023-05-21T03:08:44.235Z,99266.06
2023-05-21T03:11:11.023Z,99275.72
2023-05-21T03:13:38.226Z,99269.63
2023-05-21T03:16:05.496Z,99268.69
2023-05-21T03:18:32.633Z,99261.84
2023-05-21T03:20:59.396Z,99262.78
2023-05-21T03:23:27.029Z,99262.78
2023-05-21T03:25:54.001Z,99253.19
2023-05-21T03:28:21.179Z,99245.28
2023-05-21T03:30:49.827Z,99249.63
2023-05-21T03:33:17.086Z,99245.16
2023-05-21T03:35:43.887Z,99247.75
2023-05-21T03:38:11.121Z,99239.84
2023-05-21T03:40:37.924Z,99243.31
2023-05-21T03:43:04.921Z,99240.78
2023-05-21T03:45:31.688Z,99245.25
2023-05-21T03:47:58.878Z,99254.69
2023-05-21T03:50:25.716Z,99264.84
2023-05-21T03:52:52.739Z,99266.13
2023-05-21T03:55:19.569Z,99272.41
2023-05-21T03:57:46.610Z,99270.72
2023-05-21T04:00:14.082Z,99279.59
2023-05-21T04:02:41.245Z,99270.19
2023-05-21T04:05:08.267Z,99274.25
2023-05-21T04:07:38.329Z,99268.47
2023-05-21T04:10:05.321Z,99267.69
2023-05-21T04:12:32.419Z,99264.97
2023-05-21T04:14:59.146Z,99264.66
2023-05-21T04:17:27.131Z,99272.25
2023-05-21T04:19:54.467Z,99270.00
2023-05-21T04:22:23.546Z,99272.91
2023-05-21T04:24:50.558Z,99264.22
2023-05-21T04:27:17.680Z,99260.75
2023-05-21T04:29:44.437Z,99262.50
2023-05-21T04:32:11.777Z,99264.19
2023-05-21T04:34:39.733Z,99264.91
2023-05-21T04:37:07.006Z,99262.00
2023-05-21T04:39:34.856Z,99260.97
2023-05-21T04:42:03.253Z,99263.47
2023-05-21T04:44:30.093Z,99258.91
2023-05-21T04:46:57.682Z,99268.50
2023-05-21T04:49:24.631Z,99271.28
2023-05-21T04:51:51.679Z,99258.06
2023-05-21T04:54:18.412Z,99263.72
2023-05-21T04:56:47.454Z,99254.09
2023-05-21T04:59:14.641Z,99261.09
2023-05-21T05:01:44.016Z,99263.63
2023-05-21T05:04:11.019Z,99264.22
2023-05-21T05:06:37.810Z,99267.06
2023-05-21T05:09:04.830Z,99267.44
2023-05-21T05:11:31.573Z,99269.97
2023-05-21T05:13:58.676Z,99269.78
2023-05-21T05:16:26.290Z,99273.72
2023-05-21T05:18:53.531Z,99276.47
2023-05-21T05:21:22.138Z,99275.38
2023-05-21T05:23:49.196Z,99264.06
2023-05-21T05:26:16.063Z,99275.16
2023-05-21T05:28:43.187Z,99273.38
2023-05-21T05:31:10.185Z,99275.34
2023-05-21T05:33:37.433Z,99277.22
2023-05-21T05:36:04.339Z,99274.50
2023-05-21T05:38:31.401Z,99276.94
2023-05-21T05:40:58.171Z,99272.44
2023-05-21T05:43:25.750Z,99280.59
2023-05-21T05:45:52.763Z,99278.66
2023-05-21T05:48:19.925Z,99267.72
2023-05-21T05:50:46.804Z,99258.81
2023-05-21T05:53:14.695Z,99257.81
2023-05-21T05:55:41.526Z,99259.75
2023-05-21T05:58:08.557Z,99267.00
2023-05-21T06:00:35.316Z,99261.00
2023-05-21T06:03:02.468Z,99264.00
2023-05-21T06:05:29.482Z,99258.25
2023-05-21T06:07:56.729Z,99254.31
2023-05-21T06:10:23.474Z,99253.56
2023-05-21T06:12:50.541Z,99251.34
2023-05-21T06:15:19.433Z,99249.41
2023-05-21T06:17:46.570Z,99251.91
2023-05-21T06:20:13.456Z,99245.03
2023-05-21T06:22:40.530Z,99245.97
2023-05-21T06:25:08.230Z,99237.03
2023-05-21T06:27:35.463Z,99243.81
2023-05-21T06:30:02.243Z,99237.34
2023-05-21T06:32:29.567Z,99240.41
2023-05-21T06:34:56.319Z,99231.59
2023-05-21T06:37:24.844Z,99244.69
2023-05-21T06:39:53.233Z,99236.47
2023-05-21T06:42:20.628Z,99235.31
2023-05-21T06:44:47.372Z,99236.75
2023-05-21T06:47:14.384Z,99243.38
2023-05-21T06:49:42.467Z,99236.25
2023-05-21T06:52:09.615Z,99220.94
2023-05-21T06:54:36.468Z,99223.09
2023-05-21T06:57:03.661Z,99227.63
2023-05-21T06:59:30.652Z,99218.03
2023-05-21T07:01:57.791Z,99213.38
2023-05-21T07:04:24.641Z,99220.06
2023-05-21T07:06:52.530Z,99226.63
2023-05-21T07:09:19.519Z,99225.22
2023-05-21T07:11:46.589Z,99215.19
2023-05-21T07:14:13.379Z,99225.88
2023-05-21T07:16:40.605Z,99215.28
2023-05-21T07:19:07.487Z,99224.13
2023-05-21T07:21:34.650Z,99208.94
2023-05-21T07:24:01.679Z,99211.34
2023-05-21T07:26:28.858Z,99215.97
2023-05-21T07:28:55.696Z,99210.13
2023-05-21T07:31:22.822Z,99217.00
2023-05-21T07:33:49.654Z,99211.44
2023-05-21T07:36:16.901Z,99220.09
2023-05-21T07:38:44.313Z,99219.38
2023-05-21T07:41:11.448Z,99214.13
2023-05-21T07:43:38.479Z,99214.56
2023-05-21T07:46:05.962Z,99225.03
2023-05-21T07:48:35.268Z,99213.72
2023-05-21T07:51:04.049Z,99209.72
2023-05-21T07:53:32.501Z,99205.78
2023-05-21T07:56:00.165Z,99201.44
2023-05-21T07:58:26.948Z,99213.97
2023-05-21T08:00:54.160Z,99214.47
2023-05-21T08:03:21.144Z,99200.09
2023-05-21T08:05:49.240Z,99205.31
2023-05-21T08:08:19.373Z,99204.59
2023-05-21T08:10:46.736Z,99215.03
2023-05-21T08:13:13.968Z,99206.00
2023-05-21T08:15:41.027Z,99210.38
2023-05-21T08:18:07.906Z,99201.47
2023-05-21T08:20:35.022Z,99202.25
2023-05-21T08:23:01.989Z,99202.28
2023-05-21T08:25:29.184Z,99196.88
2023-05-21T08:27:56.457Z,99196.94
2023-05-21T08:30:23.612Z,99201.91
2023-05-21T08:32:50.590Z,99194.72
2023-05-21T08:35:17.737Z,99192.84
2023-05-21T08:37:44.567Z,99207.41
2023-05-21T08:40:12.419Z,99198.38
2023-05-21T08:42:46.154Z,99203.16
2023-05-21T08:45:16.868Z,99194.84
2023-05-21T08:47:44.472Z,99204.50
2023-05-21T08:50:12.725Z,99194.25
2023-05-21T08:52:39.564Z,99201.16
2023-05-21T08:55:07.348Z,99210.63
2023-05-21T08:57:34.316Z,99200.63
2023-05-21T09:00:05.010Z,99190.63
2023-05-21T09:02:35.470Z,99195.50
2023-05-21T09:05:03.921Z,99199.25
2023-05-21T09:07:31.874Z,99192.66
2023-05-21T09:10:03.347Z,99201.81
2023-05-21T09:12:30.155Z,99200.41
2023-05-21T09:14:58.591Z,99201.28
2023-05-21T09:17:25.406Z,99189.44
2023-05-21T09:20:11.161Z,99189.75
2023-05-21T09:22:42.704Z,99190.44
2023-05-21T09:25:11.392Z,99185.50
2023-05-21T09:27:38.453Z,99194.50
2023-05-21T09:30:09.277Z,99185.56
2023-05-21T09:32:39.004Z,99193.16
2023-05-21T09:35:07.978Z,99182.44
2023-05-21T09:37:38.351Z,99180.72
2023-05-21T09:40:12.672Z,99185.91
2023-05-21T09:42:40.273Z,99174.69
2023-05-21T09:45:11.329Z,99182.06
2023-05-21T09:47:42.832Z,99181.13
2023-05-21T09:50:13.256Z,99181.41
2023-05-21T09:52:42.125Z,99176.63
2023-05-21T09:55:13.138Z,99182.00
2023-05-21T09:57:43.313Z,99184.13
2023-05-21T10:00:17.806Z,99185.38
2023-05-21T10:02:54.538Z,99183.22
2023-05-21T10:05:24.198Z,99186.38
2023-05-21T10:07:52.046Z,99165.41
2023-05-21T10:10:19.976Z,99157.56
2023-05-21T10:12:47.722Z,99169.59
2023-05-21T10:15:17.525Z,99162.97
2023-05-21T10:17:46.130Z,99155.50
2023-05-21T10:20:13.537Z,99160.44
2023-05-21T10:22:43.679Z,99163.13
2023-05-21T10:25:10.771Z,99153.16
2023-05-21T10:27:37.702Z,99153.81
2023-05-21T10:30:05.975Z,99147.13
2023-05-21T10:32:33.611Z,99154.06
2023-05-21T10:35:02.456Z,99149.25
2023-05-21T10:37:29.758Z,99153.66
2023-05-21T10:39:57.016Z,99131.91
2023-05-21T10:42:23.797Z,99134.63
2023-05-21T10:45:00.069Z,99142.38
2023-05-21T10:47:32.712Z,99144.41
2023-05-21T10:50:02.605Z,99139.44
2023-05-21T10:52:47.948Z,99136.47
2023-05-21T10:55:27.695Z,99138.53
2023-05-21T10:57:54.482Z,99129.16
2023-05-21T11:00:21.729Z,99134.38
2023-05-21T11:02:48.947Z,99141.22
2023-05-21T11:05:16.179Z,99127.88
2023-05-21T11:07:53.975Z,99128.50
2023-05-21T11:10:36.647Z,99112.59
2023-05-21T11:13:16.620Z,99122.34
2023-05-21T11:15:58.667Z,99127.03
2023-05-21T11:18:40.526Z,99117.63
2023-05-21T11:21:11.431Z,99118.84
2023-05-21T11:23:57.224Z,99122.06
2023-05-21T11:26:27.718Z,99115.34
2023-05-21T11:29:03.412Z,99106.69
2023-05-21T11:31:38.076Z,99118.06
2023-05-21T11:34:10.799Z,99116.38
2023-05-21T11:36:38.325Z,99118.22
2023-05-21T11:39:15.840Z,99113.28
2023-05-21T11:41:51.858Z,99122.47
2023-05-21T11:44:18.687Z,99125.06
2023-05-21T11:46:46.483Z,99095.59
2023-05-21T11:49:13.485Z,99109.59
2023-05-21T11:51:40.793Z,99105.53
2023-05-21T11:54:09.163Z,99105.56
2023-05-21T11:56:36.941Z,99103.41
2023-05-21T11:59:03.776Z,99095.81
2023-05-21T12:01:31.325Z,99093.69
2023-05-21T12:03:58.108Z,99103.31
2023-05-21T12:06:28.184Z,99106.19
2023-05-21T12:08:58.436Z,99098.56
2023-05-21T12:11:27.502Z,99094.19
2023-05-21T12:13:54.347Z,99092.81
2023-05-21T12:16:22.818Z,99088.94
2023-05-21T12:18:49.702Z,99084.38
2023-05-21T12:21:16.985Z,99090.16
2023-05-21T12:23:43.729Z,99077.66
2023-05-21T12:26:11.022Z,99080.00
2023-05-21T12:28:37.861Z,99084.38
2023-05-21T12:31:04.974Z,99107.72
2023-05-21T12:33:37.492Z,99076.78
2023-05-21T12:36:04.840Z,99081.84
2023-05-21T12:38:31.894Z,99090.13
2023-05-21T12:41:05.904Z,99078.97
2023-05-21T12:43:33.223Z,99074.41
2023-05-21T12:46:00.643Z,99082.69
2023-05-21T12:48:27.470Z,99069.66
2023-05-21T12:50:54.547Z,99083.31
2023-05-21T12:53:21.353Z,99080.22
2023-05-21T12:55:48.477Z,99067.19
2023-05-21T12:58:15.457Z,99064.34
2023-05-21T13:00:43.740Z,99081.63
2023-05-21T13:03:11.378Z,99068.22
2023-05-21T13:05:40.357Z,99060.91
2023-05-21T13:08:07.161Z,99062.09
2023-05-21T13:10:34.271Z,99068.69
2023-05-21T13:13:01.886Z,99065.25
2023-05-21T13:15:29.188Z,99055.16
2023-05-21T13:17:57.572Z,99067.84
2023-05-21T13:20:27.290Z,99071.84
2023-05-21T13:22:54.353Z,99061.72
2023-05-21T13:25:22.696Z,99066.03
2023-05-21T13:27:50.255Z,99068.53
2023-05-21T13:30:17.682Z,99067.38
2023-05-21T13:32:44.777Z,99072.59
2023-05-21T13:35:12.394Z,99057.91
2023-05-21T13:37:42.351Z,99053.63
2023-05-21T13:40:15.190Z,99050.63
2023-05-21T13:42:43.057Z,99040.53
2023-05-21T13:45:11.512Z,99043.41
2023-05-21T13:47:40.271Z,99046.84
2023-05-21T13:50:08.355Z,99046.91
2023-05-21T13:52:35.273Z,99043.47
2023-05-21T13:55:02.422Z,99052.25
2023-05-21T13:57:31.112Z,99040.56
2023-05-21T13:59:58.620Z,99043.19
2023-05-21T14:02:25.708Z,99031.09
2023-05-21T14:04:53.030Z,99031.97
2023-05-21T14:07:19.848Z,99027.97
2023-05-21T14:09:47.767Z,99031.34
2023-05-21T14:12:14.599Z,99022.28
2023-05-21T14:14:42.134Z,99035.56
2023-05-21T14:17:08.995Z,99021.31
2023-05-21T14:19:36.107Z,99025.81
2023-05-21T14:22:02.920Z,99014.25
2023-05-21T14:24:30.101Z,99017.28
2023-05-21T14:26:57.062Z,99026.84
2023-05-21T14:29:24.196Z,99024.59
2023-05-21T14:31:51.013Z,99026.09
2023-05-21T14:34:18.089Z,99017.22
2023-05-21T14:36:44.889Z,99009.72
2023-05-21T14:39:12.009Z,99010.81
2023-05-21T14:41:39.697Z,99015.78
2023-05-21T14:44:06.931Z,99020.19
2023-05-21T14:46:34.024Z,99013.28
2023-05-21T14:49:01.256Z,99007.41
2023-05-21T14:51:28.069Z,99000.50
2023-05-21T14:53:57.593Z,99011.53
2023-05-21T14:56:27.376Z,99000.06
2023-05-21T14:58:54.771Z,99002.91
2023-05-21T15:01:21.665Z,98998.72
2023-05-21T15:03:49.277Z,99001.97
2023-05-21T15:06:16.283Z,98994.44
2023-05-21T15:08:43.436Z,98998.31
2023-05-21T15:11:10.346Z,99008.22
2023-05-21T15:13:38.009Z,99009.69
2023-05-21T15:16:05.002Z,99006.44
2023-05-21T15:18:32.127Z,98999.66
2023-05-21T15:20:59.354Z,99006.53
2023-05-21T15:23:26.478Z,99003.75
2023-05-21T15:25:53.363Z,98993.59
2023-05-21T15:28:20.780Z,98995.78
2023-05-21T15:30:47.500Z,98988.56
2023-05-21T15:33:14.624Z,98997.97
2023-05-21T15:35:41.859Z,98990.19
2023-05-21T15:38:09.377Z,98995.16
2023-05-21T15:40:36.187Z,98991.41
2023-05-21T15:43:03.340Z,98994.00
2023-05-21T15:45:30.134Z,98991.59
2023-05-21T15:47:57.242Z,98990.47
2023-05-21T15:50:24.070Z,98995.47
2023-05-21T15:52:53.315Z,98975.44
2023-05-21T15:55:20.677Z,98990.47
2023-05-21T15:57:47.712Z,98995.22
2023-05-21T16:00:14.628Z,98990.25
2023-05-21T16:02:42.205Z,98994.78
2023-05-21T16:05:09.407Z,98988.44
2023-05-21T16:07:38.143Z,98985.44
2023-05-21T16:10:06.036Z,98978.22
2023-05-21T16:12:33.116Z,98992.66
2023-05-21T16:14:59.975Z,98977.50
2023-05-21T16:17:27.107Z,98978.50
2023-05-21T16:19:53.942Z,98992.38
2023-05-21T16:22:21.300Z,98990.28
2023-05-21T16:24:48.382Z,98987.06
2023-05-21T16:27:15.621Z,98985.78
2023-05-21T16:29:42.570Z,98995.44
2023-05-21T16:32:10.688Z,98990.50
2023-05-21T16:34:37.483Z,98984.16
2023-05-21T16:37:04.665Z,98986.72
2023-05-21T16:39:31.605Z,98984.91
2023-05-21T16:41:59.883Z,98985.47
2023-05-21T16:44:27.322Z,98984.38
2023-05-21T16:46:54.489Z,98992.16
2023-05-21T16:49:21.251Z,98991.75
2023-05-21T16:51:48.429Z,98992.41
2023-05-21T16:54:15.165Z,98988.59
2023-05-21T16:56:42.231Z,98993.84
2023-05-21T16:59:09.461Z,98994.84
2023-05-21T17:01:36.750Z,98989.72
2023-05-21T17:04:03.869Z,98995.09
2023-05-21T17:06:31.750Z,98987.88
2023-05-21T17:08:58.608Z,98989.81
2023-05-21T17:11:25.871Z,98996.84
2023-05-21T17:13:52.748Z,98995.13
2023-05-21T17:16:19.970Z,98988.03
2023-05-21T17:18:46.846Z,98987.28
2023-05-21T17:21:14.208Z,98989.91
2023-05-21T17:23:42.898Z,98999.59
2023-05-21T17:26:11.163Z,98990.97
2023-05-21T17:28:37.941Z,98991.00
2023-05-21T17:31:07.233Z,98999.09
2023-05-21T17:33:34.107Z,98994.81
2023-05-21T17:36:02.173Z,99002.06
2023-05-21T17:38:29.012Z,98994.19
2023-05-21T17:40:56.492Z,99002.41
2023-05-21T17:43:23.336Z,99002.47
2023-05-21T17:45:50.504Z,99002.66
2023-05-21T17:48:17.290Z,99011.56
2023-05-21T17:50:46.880Z,99008.16
2023-05-21T17:53:13.855Z,99010.84
2023-05-21T17:55:40.999Z,99003.78
2023-05-21T17:58:09.938Z,99008.44
2023-05-21T18:00:37.118Z,99011.38
2023-05-21T18:03:04.154Z,99010.63
2023-05-21T18:05:31.700Z,99010.88
2023-05-21T18:07:59.211Z,99002.31
2023-05-21T18:10:26.257Z,99008.72
2023-05-21T18:12:53.022Z,99010.03
2023-05-21T18:15:20.099Z,99015.69
2023-05-21T18:17:47.160Z,99010.00
2023-05-21T18:20:14.318Z,99015.84
2023-05-21T18:22:41.078Z,99013.66
2023-05-21T18:25:08.547Z,99017.78
2023-05-21T18:27:35.338Z,99015.69
2023-05-21T18:30:05.195Z,99016.38
2023-05-21T18:32:33.089Z,99026.72
2023-05-21T18:35:00.227Z,99019.53
2023-05-21T18:37:27.448Z,99025.88
2023-05-21T18:39:54.611Z,99024.63
2023-05-21T18:42:21.416Z,99024.19
2023-05-21T18:44:50.757Z,99023.66
2023-05-21T18:47:17.838Z,99021.22
2023-05-21T18:49:44.935Z,99016.22
2023-05-21T18:52:11.695Z,99030.16
2023-05-21T18:54:38.749Z,99023.91
2023-05-21T18:57:05.747Z,99035.41
2023-05-21T18:59:32.824Z,99027.41
2023-05-21T19:01:59.659Z,99035.16
2023-05-21T19:04:27.467Z,99035.16
2023-05-21T19:06:54.247Z,99025.38
2023-05-21T19:09:21.404Z,99035.94
2023-05-21T19:11:48.349Z,99033.97
2023-05-21T19:14:15.396Z,99031.28
2023-05-21T19:16:42.330Z,99025.81
2023-05-21T19:19:09.487Z,99031.81
2023-05-21T19:21:36.649Z,99035.81
2023-05-21T19:24:05.913Z,99031.22
2023-05-21T19:26:33.269Z,99033.53
2023-05-21T19:29:00.479Z,99031.31
2023-05-21T19:31:27.257Z,99033.44
2023-05-21T19:33:54.371Z,99040.19
2023-05-21T19:36:21.685Z,99034.38
2023-05-21T19:38:49.716Z,99033.91
2023-05-21T19:41:17.067Z,99037.13
2023-05-21T19:43:44.676Z,99034.91
2023-05-21T19:46:11.655Z,99032.72
2023-05-21T19:48:38.985Z,99031.28
2023-05-21T19:51:05.808Z,99034.34
2023-05-21T19:53:32.941Z,99024.97
2023-05-21T19:56:00.085Z,99039.28
2023-05-21T19:58:29.655Z,99039.59
2023-05-21T20:00:58.491Z,99036.41
2023-05-21T20:03:26.600Z,99035.06
2023-05-21T20:05:53.689Z,99041.00
2023-05-21T20:08:20.851Z,99028.94
2023-05-21T20:10:50.511Z,99032.81
2023-05-21T20:13:19.104Z,99031.41
2023-05-21T20:15:48.070Z,99027.28
2023-05-21T20:18:15.662Z,99031.16
2023-05-21T20:20:42.820Z,99036.66
2023-05-21T20:23:09.913Z,99038.75
2023-05-21T20:25:36.784Z,99040.66
2023-05-21T20:28:05.150Z,99038.19
2023-05-21T20:30:33.132Z,99047.25
2023-05-21T20:33:03.672Z,99043.19
2023-05-21T20:35:30.655Z,99035.63
2023-05-21T20:37:57.733Z,99037.50
2023-05-21T20:40:24.713Z,99045.63
2023-05-21T20:42:53.626Z,99055.56
2023-05-21T20:45:21.212Z,99050.41
2023-05-21T20:47:50.120Z,99048.91
2023-05-21T20:50:17.979Z,99052.59
2023-05-21T20:52:47.259Z,99054.66
2023-05-21T20:55:14.608Z,99048.75
2023-05-21T20:57:42.212Z,99042.88
2023-05-21T21:00:11.564Z,99053.66
2023-05-21T21:02:39.231Z,99045.06
2023-05-21T21:05:06.543Z,99048.84
2023-05-21T21:07:34.394Z,99051.69
2023-05-21T21:10:01.590Z,99041.34
2023-05-21T21:12:28.811Z,99046.72
2023-05-21T21:14:55.737Z,99040.81
2023-05-21T21:17:23.281Z,99048.09
2023-05-21T21:19:50.206Z,99056.19
2023-05-21T21:22:18.496Z,99050.25
2023-05-21T21:24:45.882Z,99050.59
2023-05-21T21:27:13.185Z,99052.56
2023-05-21T21:29:39.961Z,99049.25
2023-05-21T21:32:07.228Z,99052.97
2023-05-21T21:34:33.967Z,99051.44
2023-05-21T21:37:01.020Z,99053.41
2023-05-21T21:39:27.768Z,99055.44
2023-05-21T21:41:54.841Z,99052.06
2023-05-21T21:44:21.624Z,99058.47
2023-05-21T21:46:48.658Z,99050.75
2023-05-21T21:49:17.503Z,99051.75
2023-05-21T21:51:44.890Z,99050.06
2023-05-21T21:54:12.093Z,99048.50
2023-05-21T21:56:39.222Z,99050.25
2023-05-21T21:59:06.017Z,99063.56
2023-05-21T22:01:33.627Z,99056.41
2023-05-21T22:04:00.548Z,99056.31
2023-05-21T22:06:28.705Z,99062.56
2023-05-21T22:08:55.663Z,99058.28
2023-05-21T22:11:22.957Z,99057.63
2023-05-21T22:13:49.835Z,99051.63
2023-05-21T22:16:16.946Z,99054.31
2023-05-21T22:18:43.911Z,99059.69
2023-05-21T22:21:14.314Z,99054.63
2023-05-21T22:23:41.512Z,99057.44
2023-05-21T22:26:09.278Z,99057.56
2023-05-21T22:28:36.140Z,99061.28
2023-05-21T22:31:03.398Z,99058.78
2023-05-21T22:33:30.376Z,99060.81
2023-05-21T22:35:58.233Z,99055.72
2023-05-21T22:38:25.734Z,99059.44
2023-05-21T22:40:52.796Z,99057.91
2023-05-21T22:43:19.599Z,99059.00
2023-05-21T22:45:46.665Z,99062.69
2023-05-21T22:48:14.389Z,99061.97
2023-05-21T22:50:41.580Z,99061.31
2023-05-21T22:53:08.428Z,99063.25
2023-05-21T22:55:35.588Z,99065.25
2023-05-21T22:58:02.525Z,99067.16
2023-05-21T23:00:29.780Z,99065.50
2023-05-21T23:02:56.628Z,99060.38
2023-05-21T23:05:23.879Z,99070.13
2023-05-21T23:07:50.779Z,99067.59
2023-05-21T23:10:18.096Z,99060.66
2023-05-21T23:12:44.901Z,99056.47
2023-05-21T23:15:12.089Z,99057.44
2023-05-21T23:17:38.904Z,99054.00
2023-05-21T23:20:07.339Z,99054.22
2023-05-21T23:22:34.485Z,99055.25
2023-05-21T23:25:01.659Z,99045.69
2023-05-21T23:27:28.671Z,99049.25
2023-05-21T23:29:55.865Z,99046.72
2023-05-21T23:32:23.754Z,99053.00
2023-05-21T23:34:50.977Z,99055.72
2023-05-21T23:37:17.810Z,99051.56
2023-05-21T23:39:49.583Z,99047.19
2023-05-21T23:42:17.019Z,99042.06
2023-05-21T23:44:44.254Z,99044.84
2023-05-21T23:47:11.030Z,99039.69
2023-05-21T23:49:38.065Z,99038.03
2023-05-21T23:52:05.534Z,99039.03
2023-05-21T23:54:32.716Z,99040.06
2023-05-21T23:56:59.444Z,99041.94
2023-05-21T23:59:26.531Z,99036.03
